Time;durP1;ratioP1;P1;durP2;ratioP2;P2;SDS_P1;SDS_P2;PMS_P1;PMS_P2;Temp;Humidity;BMP_temperature;BMP_pressure;BME280_temperature;BME280_humidity;BME280_pressure;Samples;Min_cycle;Max_cycle;Signal;HPM_P1;HPM_P2
2021/04/18 00:01:29;;;;;;;8.90;5.27;;;;;;;;;;5021687;28;20202;-49
2021/04/18 00:03:57;;;;;;;7.37;4.33;;;;;;;;;;5017097;28;20889;-51
2021/04/18 00:06:22;;;;;;;11.33;4.90;;;;;;;;;;5018229;28;20711;-49
2021/04/18 00:08:50;;;;;;;9.90;5.27;;;;;;;;;;5026251;28;20329;-49
2021/04/18 00:11:19;;;;;;;6.60;4.47;;;;;;;;;;5024921;28;20190;-49
2021/04/18 00:13:46;;;;;;;10.33;5.30;;;;;;;;;;5017020;28;20233;-50
2021/04/18 00:16:14;;;;;;;7.20;4.20;;;;;;;;;;5021624;28;20220;-50
2021/04/18 00:18:42;;;;;;;7.10;4.63;;;;;;;;;;5022968;28;20211;-49
2021/04/18 00:21:10;;;;;;;12.33;5.43;;;;;;;;;;5021735;28;20193;-50
2021/04/18 00:23:35;;;;;;;10.47;5.40;;;;;;;;;;5021402;28;20196;-50
2021/04/18 00:26:01;;;;;;;9.97;4.60;;;;;;;;;;5024255;28;20179;-49
2021/04/18 00:28:26;;;;;;;8.90;4.97;;;;;;;;;;5024187;28;20626;-49
2021/04/18 00:30:54;;;;;;;8.47;4.50;;;;;;;;;;5017023;28;20179;-48
2021/04/18 00:33:21;;;;;;;9.43;4.33;;;;;;;;;;5023616;28;20633;-51
2021/04/18 00:35:51;;;;;;;10.00;5.00;;;;;;;;;;5019379;28;20182;-50
2021/04/18 00:38:16;;;;;;;6.77;4.80;;;;;;;;;;5019190;28;20763;-49
2021/04/18 00:40:44;;;;;;;7.03;4.53;;;;;;;;;;5018182;28;20281;-48
2021/04/18 00:43:12;;;;;;;7.67;4.50;;;;;;;;;;5019652;28;20198;-48
2021/04/18 00:45:40;;;;;;;6.17;4.40;;;;;;;;;;5021412;28;20198;-49
2021/04/18 00:48:10;;;;;;;7.37;4.27;;;;;;;;;;5020663;28;20207;-49
2021/04/18 00:50:39;;;;;;;8.17;4.10;;;;;;;;;;5017556;28;20234;-50
2021/04/18 00:53:07;;;;;;;7.40;3.90;;;;;;;;;;5014881;28;20248;-49
2021/04/18 00:55:40;;;;;;;6.30;4.23;;;;;;;;;;5015154;28;20689;-50
2021/04/18 00:58:07;;;;;;;7.40;4.77;;;;;;;;;;5022505;28;20202;-48
2021/04/18 01:00:36;;;;;;;9.40;4.30;;;;;;;;;;5029585;28;20179;-48
2021/04/18 01:03:05;;;;;;;10.00;4.50;;;;;;;;;;5023388;28;20686;-51
2021/04/18 01:05:33;;;;;;;6.43;4.27;;;;;;;;;;5012195;28;20328;-50
2021/04/18 01:08:01;;;;;;;8.07;4.63;;;;;;;;;;5022266;28;20238;-50
2021/04/18 01:10:29;;;;;;;9.70;3.77;;;;;;;;;;5023718;28;20194;-50
2021/04/18 01:12:54;;;;;;;8.43;4.60;;;;;;;;;;5033659;28;20229;-51
2021/04/18 01:15:20;;;;;;;6.07;4.23;;;;;;;;;;5024369;28;20184;-50
2021/04/18 01:17:48;;;;;;;8.73;4.10;;;;;;;;;;5034401;28;20645;-50
2021/04/18 01:20:19;;;;;;;8.23;4.40;;;;;;;;;;5026764;28;20221;-50
2021/04/18 01:22:48;;;;;;;11.03;4.60;;;;;;;;;;5021750;28;20689;-50
2021/04/18 01:25:16;;;;;;;7.07;4.20;;;;;;;;;;5027894;28;20190;-51
2021/04/18 01:27:45;;;;;;;10.83;4.13;;;;;;;;;;5026482;28;20576;-50
2021/04/18 01:30:18;;;;;;;7.43;3.80;;;;;;;;;;5032449;28;20460;-48
2021/04/18 01:32:48;;;;;;;8.60;4.27;;;;;;;;;;5030519;28;20190;-50
2021/04/18 01:35:16;;;;;;;6.63;4.20;;;;;;;;;;5024955;28;20193;-52
2021/04/18 01:37:42;;;;;;;6.63;3.93;;;;;;;;;;5023795;28;20238;-50
2021/04/18 01:40:17;;;;;;;6.70;4.07;;;;;;;;;;5035025;28;20230;-50
2021/04/18 01:42:43;;;;;;;9.50;4.20;;;;;;;;;;5029490;28;20187;-51
2021/04/18 01:45:13;;;;;;;6.67;3.83;;;;;;;;;;5036288;28;20200;-50
2021/04/18 01:47:41;;;;;;;10.60;4.30;;;;;;;;;;5025976;28;20260;-51
2021/04/18 01:50:14;;;;;;;8.17;4.13;;;;;;;;;;5024053;28;20214;-51
2021/04/18 01:52:45;;;;;;;8.23;3.90;;;;;;;;;;5026917;28;20209;-49
2021/04/18 01:55:14;;;;;;;5.97;3.70;;;;;;;;;;5019180;28;20175;-48
2021/04/18 01:57:42;;;;;;;11.33;4.37;;;;;;;;;;5021801;28;20210;-51
2021/04/18 02:00:14;;;;;;;7.87;4.07;;;;;;;;;;5023365;28;20284;-51
2021/04/18 02:02:40;;;;;;;7.43;4.10;;;;;;;;;;5025839;28;20313;-51
2021/04/18 02:05:06;;;;;;;8.53;4.20;;;;;;;;;;5024270;28;20183;-51
2021/04/18 02:07:31;;;;;;;10.90;4.37;;;;;;;;;;5020634;28;20186;-50
2021/04/18 02:09:56;;;;;;;7.03;3.97;;;;;;;;;;5028301;28;20594;-50
2021/04/18 02:12:24;;;;;;;8.90;3.90;;;;;;;;;;5025416;28;20201;-49
2021/04/18 02:14:55;;;;;;;7.43;4.87;;;;;;;;;;5026361;28;20194;-50
2021/04/18 02:17:24;;;;;;;7.27;3.60;;;;;;;;;;5030899;28;20691;-48
2021/04/18 02:19:54;;;;;;;6.40;3.50;;;;;;;;;;5020095;28;20683;-51
2021/04/18 02:22:22;;;;;;;7.77;3.70;;;;;;;;;;5023657;28;20201;-51
2021/04/18 02:24:49;;;;;;;8.30;3.80;;;;;;;;;;5019115;28;20211;-50
2021/04/18 02:27:14;;;;;;;8.20;4.50;;;;;;;;;;5028855;28;20667;-49
2021/04/18 02:29:42;;;;;;;10.70;5.07;;;;;;;;;;5030576;28;20215;-49
2021/04/18 02:32:10;;;;;;;11.23;3.87;;;;;;;;;;5026001;28;20197;-51
2021/04/18 02:34:38;;;;;;;6.07;3.83;;;;;;;;;;5026641;28;20194;-51
2021/04/18 02:37:06;;;;;;;7.20;3.50;;;;;;;;;;5021506;28;20214;-51
2021/04/18 02:39:33;;;;;;;9.20;4.20;;;;;;;;;;5022031;28;20219;-51
2021/04/18 02:42:01;;;;;;;7.97;3.97;;;;;;;;;;5027926;28;20198;-50
2021/04/18 02:44:28;;;;;;;5.10;3.87;;;;;;;;;;5030459;28;20209;-50
2021/04/18 02:46:55;;;;;;;7.67;4.33;;;;;;;;;;5026273;28;20670;-48
2021/04/18 02:49:25;;;;;;;9.83;4.13;;;;;;;;;;5028314;28;20229;-50
2021/04/18 02:51:53;;;;;;;9.40;4.10;;;;;;;;;;5023502;28;20202;-50
2021/04/18 02:54:21;;;;;;;9.17;4.20;;;;;;;;;;5024908;28;20252;-50
2021/04/18 02:56:46;;;;;;;9.80;4.23;;;;;;;;;;5025956;28;20260;-49
2021/04/18 02:59:17;;;;;;;7.37;3.80;;;;;;;;;;5023841;28;20305;-49
2021/04/18 03:01:44;;;;;;;8.30;4.03;;;;;;;;;;5024527;28;20610;-48
2021/04/18 03:04:10;;;;;;;9.17;4.57;;;;;;;;;;5025140;28;20567;-50
2021/04/18 03:06:35;;;;;;;8.73;4.43;;;;;;;;;;5026395;28;20182;-51
2021/04/18 03:09:02;;;;;;;8.13;3.97;;;;;;;;;;5022261;28;20214;-50
2021/04/18 03:11:27;;;;;;;11.27;4.17;;;;;;;;;;5022223;28;20194;-49
2021/04/18 03:13:55;;;;;;;6.63;3.80;;;;;;;;;;5032359;28;20282;-49
2021/04/18 03:16:22;;;;;;;8.83;4.00;;;;;;;;;;5021976;28;20214;-49
2021/04/18 03:18:50;;;;;;;6.87;4.10;;;;;;;;;;5020626;28;20213;-48
2021/04/18 03:21:17;;;;;;;6.03;3.80;;;;;;;;;;5023020;28;20277;-50
2021/04/18 03:23:43;;;;;;;5.93;3.87;;;;;;;;;;5023469;28;20186;-49
2021/04/18 03:26:10;;;;;;;8.40;4.27;;;;;;;;;;5027724;28;20723;-49
2021/04/18 03:28:37;;;;;;;5.30;3.77;;;;;;;;;;5019336;28;20773;-48
2021/04/18 03:31:08;;;;;;;9.13;4.33;;;;;;;;;;5022873;28;20257;-50
2021/04/18 03:33:41;;;;;;;7.73;4.67;;;;;;;;;;5017498;28;20245;-49
2021/04/18 03:36:06;;;;;;;7.03;4.20;;;;;;;;;;5018691;28;20226;-49
2021/04/18 03:38:32;;;;;;;5.27;4.33;;;;;;;;;;5022849;28;20214;-49
2021/04/18 03:41:02;;;;;;;6.43;4.23;;;;;;;;;;5024853;28;20682;-49
2021/04/18 03:43:32;;;;;;;11.60;4.53;;;;;;;;;;5025361;28;20253;-49
2021/04/18 03:45:57;;;;;;;8.83;4.27;;;;;;;;;;5022968;28;20194;-47
2021/04/18 03:48:25;;;;;;;9.83;4.53;;;;;;;;;;5018520;28;20730;-50
2021/04/18 03:50:51;;;;;;;6.60;4.00;;;;;;;;;;5025334;28;20207;-50
2021/04/18 03:53:18;;;;;;;10.20;4.53;;;;;;;;;;5023737;28;20253;-49
2021/04/18 03:55:45;;;;;;;10.50;4.80;;;;;;;;;;5020397;28;20198;-48
2021/04/18 03:58:11;;;;;;;7.07;4.57;;;;;;;;;;5017529;28;20652;-50
2021/04/18 04:00:36;;;;;;;9.03;4.77;;;;;;;;;;5015976;28;20277;-49
2021/04/18 04:03:04;;;;;;;7.23;4.50;;;;;;;;;;5027180;28;20281;-49
2021/04/18 04:05:31;;;;;;;11.77;5.00;;;;;;;;;;5028031;28;20201;-50
2021/04/18 04:07:59;;;;;;;12.10;5.77;;;;;;;;;;5025889;28;20245;-49
2021/04/18 04:10:27;;;;;;;7.93;5.00;;;;;;;;;;5024321;28;20244;-47
2021/04/18 04:12:55;;;;;;;7.07;4.90;;;;;;;;;;5028405;28;20237;-49
2021/04/18 04:15:25;;;;;;;9.00;6.20;;;;;;;;;;5025714;28;20202;-50
2021/04/18 04:17:53;;;;;;;11.93;5.97;;;;;;;;;;5018084;28;20210;-50
2021/04/18 04:20:18;;;;;;;8.83;6.07;;;;;;;;;;5023912;28;20182;-51
2021/04/18 04:22:46;;;;;;;10.77;6.50;;;;;;;;;;5025354;28;20193;-49
2021/04/18 04:25:14;;;;;;;10.20;6.27;;;;;;;;;;5023638;28;20559;-49
2021/04/18 04:27:45;;;;;;;10.40;6.93;;;;;;;;;;5019447;28;20213;-50
2021/04/18 04:30:11;;;;;;;12.10;7.00;;;;;;;;;;5025505;28;20429;-48
2021/04/18 04:32:41;;;;;;;14.00;7.07;;;;;;;;;;5018257;28;20182;-49
2021/04/18 04:35:10;;;;;;;15.53;8.03;;;;;;;;;;5022544;28;20276;-50
2021/04/18 04:37:40;;;;;;;11.53;7.40;;;;;;;;;;5022856;28;20219;-50
2021/04/18 04:40:11;;;;;;;13.63;7.80;;;;;;;;;;5022307;28;20223;-48
2021/04/18 04:42:39;;;;;;;14.10;8.30;;;;;;;;;;5029300;28;20678;-50
2021/04/18 04:45:05;;;;;;;11.47;7.50;;;;;;;;;;5040173;28;20332;-49
2021/04/18 04:47:30;;;;;;;13.83;7.53;;;;;;;;;;5025669;28;20269;-48
2021/04/18 04:49:58;;;;;;;11.80;7.37;;;;;;;;;;5031211;28;20602;-50
2021/04/18 04:52:25;;;;;;;10.83;7.27;;;;;;;;;;5026186;28;20191;-49
2021/04/18 04:54:53;;;;;;;11.80;7.60;;;;;;;;;;5026590;28;20269;-49
2021/04/18 04:57:19;;;;;;;12.47;7.37;;;;;;;;;;5027732;28;20210;-49
2021/04/18 04:59:49;;;;;;;12.57;7.07;;;;;;;;;;5026411;28;20218;-50
2021/04/18 05:02:14;;;;;;;11.70;7.77;;;;;;;;;;5027774;28;20738;-49
2021/04/18 05:04:41;;;;;;;12.50;8.87;;;;;;;;;;5036353;28;20191;-50
2021/04/18 05:07:09;;;;;;;15.83;8.00;;;;;;;;;;5028537;28;20201;-49
2021/04/18 05:09:34;;;;;;;11.93;8.00;;;;;;;;;;5025262;28;20217;-51
2021/04/18 05:12:07;;;;;;;13.33;7.77;;;;;;;;;;5026643;28;20186;-48
2021/04/18 05:14:32;;;;;;;11.37;7.87;;;;;;;;;;5027374;28;20206;-48
2021/04/18 05:16:57;;;;;;;21.00;9.80;;;;;;;;;;5029832;28;20206;-49
2021/04/18 05:19:23;;;;;;;18.47;8.33;;;;;;;;;;5022312;28;20750;-49
2021/04/18 05:21:53;;;;;;;16.63;9.03;;;;;;;;;;5027655;28;20194;-49
2021/04/18 05:24:18;;;;;;;15.87;9.73;;;;;;;;;;5024846;28;20203;-48
2021/04/18 05:26:46;;;;;;;14.60;8.93;;;;;;;;;;5026114;28;20195;-49
2021/04/18 05:29:14;;;;;;;17.17;9.70;;;;;;;;;;5032066;28;20214;-50
2021/04/18 05:31:39;;;;;;;15.67;10.33;;;;;;;;;;5022430;28;20270;-48
2021/04/18 05:34:06;;;;;;;19.83;11.03;;;;;;;;;;5018893;28;20322;-49
2021/04/18 05:36:34;;;;;;;17.37;10.27;;;;;;;;;;5026674;28;20702;-48
2021/04/18 05:39:05;;;;;;;19.87;10.80;;;;;;;;;;5025527;28;20260;-48
2021/04/18 05:41:30;;;;;;;19.40;10.37;;;;;;;;;;5027089;28;20187;-49
2021/04/18 05:43:58;;;;;;;15.50;10.00;;;;;;;;;;5030979;28;20312;-51
2021/04/18 05:46:25;;;;;;;15.30;9.53;;;;;;;;;;5021224;28;20228;-50
2021/04/18 05:48:53;;;;;;;14.57;8.70;;;;;;;;;;5026418;28;20219;-49
2021/04/18 05:51:18;;;;;;;19.23;9.43;;;;;;;;;;5027234;28;20201;-50
2021/04/18 05:53:43;;;;;;;17.93;9.97;;;;;;;;;;5023213;28;20198;-51
2021/04/18 05:56:09;;;;;;;16.93;9.57;;;;;;;;;;5029665;28;20252;-50
2021/04/18 05:58:36;;;;;;;14.17;9.10;;;;;;;;;;5027596;28;20245;-50
2021/04/18 06:01:01;;;;;;;13.77;9.40;;;;;;;;;;5026588;28;20236;-49
2021/04/18 06:03:31;;;;;;;15.83;10.17;;;;;;;;;;5026882;28;20198;-50
2021/04/18 06:05:57;;;;;;;17.03;9.40;;;;;;;;;;5026574;28;20224;-48
2021/04/18 06:08:25;;;;;;;19.50;10.03;;;;;;;;;;5017397;28;20215;-51
2021/04/18 06:10:52;;;;;;;15.97;9.23;;;;;;;;;;5020313;28;20195;-50
2021/04/18 06:13:20;;;;;;;14.50;10.13;;;;;;;;;;5036553;28;20194;-50
2021/04/18 06:15:47;;;;;;;18.27;9.93;;;;;;;;;;5015488;28;20279;-49
2021/04/18 06:18:13;;;;;;;14.20;8.93;;;;;;;;;;5022621;28;21084;-49
2021/04/18 06:20:40;;;;;;;16.30;9.93;;;;;;;;;;5026293;28;20210;-49
2021/04/18 06:23:08;;;;;;;17.93;10.13;;;;;;;;;;5025187;28;20197;-49
2021/04/18 06:25:33;;;;;;;13.23;9.80;;;;;;;;;;5025659;28;20217;-50
2021/04/18 06:27:58;;;;;;;16.03;9.87;;;;;;;;;;5020469;28;20179;-50
2021/04/18 06:30:26;;;;;;;13.20;10.37;;;;;;;;;;5018908;28;20193;-48
2021/04/18 06:32:53;;;;;;;15.60;10.47;;;;;;;;;;5015908;28;20257;-50
2021/04/18 06:35:23;;;;;;;16.83;10.27;;;;;;;;;;5022228;28;20183;-48
2021/04/18 06:37:51;;;;;;;15.40;10.00;;;;;;;;;;5025410;28;20220;-49
2021/04/18 06:40:21;;;;;;;16.53;10.73;;;;;;;;;;5024698;28;20215;-49
2021/04/18 06:42:46;;;;;;;14.43;10.20;;;;;;;;;;5022925;28;20194;-48
2021/04/18 06:45:16;;;;;;;13.60;10.20;;;;;;;;;;5021254;28;20193;-49
2021/04/18 06:47:48;;;;;;;18.57;11.10;;;;;;;;;;5024774;28;20884;-50
2021/04/18 06:50:16;;;;;;;17.13;10.57;;;;;;;;;;5025788;28;20241;-49
2021/04/18 06:52:43;;;;;;;14.40;10.33;;;;;;;;;;5029812;28;20216;-49
2021/04/18 06:55:15;;;;;;;17.93;10.90;;;;;;;;;;5033390;28;20284;-49
2021/04/18 06:57:40;;;;;;;20.90;10.90;;;;;;;;;;5017973;28;20256;-50
2021/04/18 07:00:07;;;;;;;22.40;12.07;;;;;;;;;;5024748;28;20211;-50
2021/04/18 07:02:37;;;;;;;19.43;10.90;;;;;;;;;;5023986;28;20284;-49
2021/04/18 07:05:16;;;;;;;17.27;10.97;;;;;;;;;;5032500;28;20581;-49
2021/04/18 07:07:46;;;;;;;16.87;11.40;;;;;;;;;;5026175;28;20383;-49
2021/04/18 07:10:30;;;;;;;18.27;11.20;;;;;;;;;;5023485;28;20187;-50
2021/04/18 07:12:55;;;;;;;19.43;11.40;;;;;;;;;;5021344;28;20283;-49
2021/04/18 07:15:43;;;;;;;13.33;10.67;;;;;;;;;;5018276;28;20254;-50
2021/04/18 07:18:14;;;;;;;18.47;11.20;;;;;;;;;;5023922;28;20223;-49
2021/04/18 07:20:55;;;;;;;17.97;11.50;;;;;;;;;;5020350;28;20646;-49
2021/04/18 07:23:25;;;;;;;17.47;11.17;;;;;;;;;;5020204;28;20182;-50
2021/04/18 07:25:51;;;;;;;16.23;11.53;;;;;;;;;;5015662;28;20314;-48
2021/04/18 07:28:27;;;;;;;15.83;11.10;;;;;;;;;;5025702;28;20353;-48
2021/04/18 07:31:02;;;;;;;15.57;10.73;;;;;;;;;;5017223;28;20200;-49
2021/04/18 07:33:27;;;;;;;14.20;11.03;;;;;;;;;;5022718;28;20268;-49
2021/04/18 07:35:52;;;;;;;17.47;11.37;;;;;;;;;;5027013;28;20226;-49
2021/04/18 07:38:29;;;;;;;16.43;11.37;;;;;;;;;;5025383;28;20210;-50
2021/04/18 07:40:56;;;;;;;16.43;11.13;;;;;;;;;;5019872;28;20213;-49
2021/04/18 07:43:27;;;;;;;16.03;10.83;;;;;;;;;;5021662;28;20187;-50
2021/04/18 07:45:57;;;;;;;17.40;12.10;;;;;;;;;;5019489;28;20353;-48
2021/04/18 07:48:24;;;;;;;21.63;11.50;;;;;;;;;;5017983;28;20714;-49
2021/04/18 07:50:51;;;;;;;19.43;11.23;;;;;;;;;;5008420;28;20202;-50
2021/04/18 07:53:26;;;;;;;15.00;11.50;;;;;;;;;;5012944;28;20282;-49
2021/04/18 07:55:54;;;;;;;16.47;11.23;;;;;;;;;;5016746;28;20193;-47
2021/04/18 07:58:22;;;;;;;18.40;11.77;;;;;;;;;;5021509;28;20602;-49
2021/04/18 08:00:51;;;;;;;16.40;11.77;;;;;;;;;;5009923;28;20199;-47
2021/04/18 08:03:17;;;;;;;18.93;11.67;;;;;;;;;;5013588;28;20205;-48
2021/04/18 08:05:46;;;;;;;16.50;11.93;;;;;;;;;;5024985;28;20197;-46
2021/04/18 08:08:18;;;;;;;17.90;11.90;;;;;;;;;;5012433;28;20667;-49
2021/04/18 08:10:46;;;;;;;16.20;11.43;;;;;;;;;;5007483;28;20182;-49
2021/04/18 08:13:14;;;;;;;19.13;12.13;;;;;;;;;;5004875;28;20191;-49
2021/04/18 08:16:03;;;;;;;15.27;11.40;;;;;;;;;;5017689;28;20236;-47
2021/04/18 08:18:31;;;;;;;16.23;12.07;;;;;;;;;;5020653;28;20226;-47
2021/04/18 08:20:57;;;;;;;14.70;10.93;;;;;;;;;;5019914;28;20693;-50
2021/04/18 08:23:36;;;;;;;17.87;11.70;;;;;;;;;;5024625;28;20190;-48
2021/04/18 08:26:12;;;;;;;14.67;10.77;;;;;;;;;;5011927;28;20845;-49
2021/04/18 08:29:07;;;;;;;15.57;11.30;;;;;;;;;;5018257;28;20280;-50
2021/04/18 08:31:55;;;;;;;19.03;12.07;;;;;;;;;;5012686;28;20211;-50
2021/04/18 08:34:34;;;;;;;18.75;13.40;;;;;;;;;;5007455;28;20449;-50
2021/04/18 08:37:04;;;;;;;17.13;12.17;;;;;;;;;;5028439;28;20272;-49
2021/04/18 08:39:32;;;;;;;17.60;11.93;;;;;;;;;;5026075;28;20228;-48
2021/04/18 08:42:00;;;;;;;18.77;12.33;;;;;;;;;;5027618;28;20787;-50
2021/04/18 08:44:28;;;;;;;16.33;11.93;;;;;;;;;;5028755;28;20623;-47
2021/04/18 08:47:00;;;;;;;16.00;11.60;;;;;;;;;;5021077;28;20179;-49
2021/04/18 08:49:33;;;;;;;17.73;11.43;;;;;;;;;;5026621;28;20271;-49
2021/04/18 08:52:01;;;;;;;16.83;11.43;;;;;;;;;;5026829;28;20222;-50
2021/04/18 08:54:31;;;;;;;17.47;11.50;;;;;;;;;;5028161;28;20197;-49
2021/04/18 08:57:03;;;;;;;14.80;11.37;;;;;;;;;;5031164;28;20211;-49
2021/04/18 08:59:30;;;;;;;16.30;12.37;;;;;;;;;;5032534;28;20386;-49
2021/04/18 09:02:12;;;;;;;15.27;11.40;;;;;;;;;;5027686;28;20201;-47
2021/04/18 09:04:40;;;;;;;14.17;11.57;;;;;;;;;;5021587;28;20272;-49
2021/04/18 09:07:09;;;;;;;15.70;12.13;;;;;;;;;;5027504;28;20205;-49
2021/04/18 09:09:37;;;;;;;16.13;11.33;;;;;;;;;;5027005;28;20210;-47
2021/04/18 09:12:03;;;;;;;19.13;11.87;;;;;;;;;;5031814;28;20211;-50
2021/04/18 09:14:34;;;;;;;13.73;10.43;;;;;;;;;;5029492;28;20605;-50
2021/04/18 09:17:16;;;;;;;14.70;10.33;;;;;;;;;;5026397;28;20691;-50
2021/04/18 09:19:50;;;;;;;15.53;10.73;;;;;;;;;;5021746;28;20207;-50
2021/04/18 09:22:17;;;;;;;15.73;11.10;;;;;;;;;;5020210;28;20301;-49
2021/04/18 09:24:53;;;;;;;11.80;10.60;;;;;;;;;;5027295;28;20561;-48
2021/04/18 09:27:24;;;;;;;13.77;10.40;;;;;;;;;;5019782;28;20218;-50
2021/04/18 09:29:58;;;;;;;13.83;10.97;;;;;;;;;;5033853;28;20207;-50
2021/04/18 09:32:30;;;;;;;13.30;10.43;;;;;;;;;;5016253;28;20931;-49
2021/04/18 09:34:58;;;;;;;17.50;11.00;;;;;;;;;;5023917;28;20190;-48
2021/04/18 09:37:35;;;;;;;13.40;10.50;;;;;;;;;;5026662;28;20213;-49
2021/04/18 09:40:08;;;;;;;14.60;11.73;;;;;;;;;;5025404;28;20214;-48
2021/04/18 09:42:37;;;;;;;12.83;10.70;;;;;;;;;;5031577;28;20775;-50
2021/04/18 09:45:22;;;;;;;15.30;10.93;;;;;;;;;;5034153;28;20627;-50
2021/04/18 09:47:52;;;;;;;16.30;10.80;;;;;;;;;;5041651;28;20673;-49
2021/04/18 09:50:25;;;;;;;15.60;11.67;;;;;;;;;;5023116;28;20685;-48
2021/04/18 09:52:51;;;;;;;17.57;11.83;;;;;;;;;;5023996;28;20230;-50
2021/04/18 09:55:23;;;;;;;15.57;10.53;;;;;;;;;;5021417;28;20182;-49
2021/04/18 09:58:00;;;;;;;12.20;10.40;;;;;;;;;;5028098;28;20211;-50
2021/04/18 10:00:37;;;;;;;12.37;10.00;;;;;;;;;;5025698;28;20248;-51
2021/04/18 10:03:14;;;;;;;14.37;10.27;;;;;;;;;;5026413;28;20745;-48
2021/04/18 10:05:59;;;;;;;11.00;9.80;;;;;;;;;;5023086;28;20240;-50
2021/04/18 10:08:33;;;;;;;11.03;9.43;;;;;;;;;;5015113;28;20221;-48
2021/04/18 10:11:08;;;;;;;12.73;10.02;;;;;;;;;;5028191;28;20866;-48
2021/04/18 10:13:56;;;;;;;11.02;9.18;;;;;;;;;;5026428;28;20193;-49
2021/04/18 10:16:24;;;;;;;12.87;9.63;;;;;;;;;;5021082;28;20549;-49
2021/04/18 10:19:15;;;;;;;16.52;9.73;;;;;;;;;;5026114;28;20206;-48
2021/04/18 10:21:42;;;;;;;11.05;9.77;;;;;;;;;;5033406;28;20277;-49
2021/04/18 10:24:30;;;;;;;13.77;9.77;;;;;;;;;;5024821;28;20272;-49
2021/04/18 10:26:55;;;;;;;12.27;9.80;;;;;;;;;;5022627;28;20210;-48
2021/04/18 10:29:20;;;;;;;13.70;11.02;;;;;;;;;;5021887;28;20202;-50
2021/04/18 10:31:46;;;;;;;13.82;10.50;;;;;;;;;;5028008;28;20208;-49
2021/04/18 10:34:11;;;;;;;14.30;10.45;;;;;;;;;;5032401;28;20186;-49
2021/04/18 10:36:36;;;;;;;14.30;10.48;;;;;;;;;;5023199;28;20207;-49
2021/04/18 10:39:04;;;;;;;14.32;10.73;;;;;;;;;;5020730;28;20233;-50
2021/04/18 10:41:32;;;;;;;12.53;10.07;;;;;;;;;;5022953;28;20198;-49
2021/04/18 10:43:59;;;;;;;14.27;10.30;;;;;;;;;;5032081;28;20197;-48
2021/04/18 10:46:27;;;;;;;13.27;10.07;;;;;;;;;;5022665;28;20191;-50
2021/04/18 10:48:55;;;;;;;12.67;10.27;;;;;;;;;;5020897;28;20217;-49
2021/04/18 10:51:21;;;;;;;16.17;10.40;;;;;;;;;;5027426;28;20194;-49
2021/04/18 10:53:51;;;;;;;11.85;9.60;;;;;;;;;;5022589;28;20191;-48
2021/04/18 10:56:16;;;;;;;11.75;10.50;;;;;;;;;;5031937;28;20244;-49
2021/04/18 10:58:43;;;;;;;15.67;10.60;;;;;;;;;;5015688;28;20223;-49
2021/04/18 11:01:11;;;;;;;13.13;10.60;;;;;;;;;;5016272;28;20202;-50
2021/04/18 11:03:38;;;;;;;14.65;10.85;;;;;;;;;;5025544;28;20209;-50
2021/04/18 11:06:06;;;;;;;12.47;9.40;;;;;;;;;;5025013;28;20183;-50
2021/04/18 11:08:34;;;;;;;11.90;9.40;;;;;;;;;;5025474;28;20268;-50
2021/04/18 11:11:04;;;;;;;13.27;9.88;;;;;;;;;;5022141;28;20251;-50
2021/04/18 11:13:30;;;;;;;14.18;9.93;;;;;;;;;;5028418;28;20183;-49
2021/04/18 11:15:55;;;;;;;13.75;9.73;;;;;;;;;;5025724;28;20186;-49
2021/04/18 11:18:20;;;;;;;12.07;9.82;;;;;;;;;;5018325;28;20222;-49
2021/04/18 11:20:46;;;;;;;11.07;8.98;;;;;;;;;;5007409;28;20191;-49
2021/04/18 11:23:14;;;;;;;14.60;9.68;;;;;;;;;;5021324;28;20560;-50
2021/04/18 11:25:44;;;;;;;11.07;8.80;;;;;;;;;;5031419;28;20776;-48
2021/04/18 11:28:12;;;;;;;12.05;9.77;;;;;;;;;;5026260;28;20203;-49
2021/04/18 11:30:37;;;;;;;12.55;9.75;;;;;;;;;;5022528;28;20247;-47
2021/04/18 11:33:02;;;;;;;11.32;8.88;;;;;;;;;;5025326;28;21057;-49
2021/04/18 11:35:35;;;;;;;10.48;8.82;;;;;;;;;;5023310;28;20390;-49
2021/04/18 11:38:04;;;;;;;11.40;9.10;;;;;;;;;;5023298;28;20717;-50
2021/04/18 11:40:34;;;;;;;13.48;9.25;;;;;;;;;;5026568;28;20720;-49
2021/04/18 11:43:03;;;;;;;10.52;9.43;;;;;;;;;;5028278;28;20193;-49
2021/04/18 11:45:28;;;;;;;12.52;9.98;;;;;;;;;;5022120;28;20186;-49
2021/04/18 11:47:53;;;;;;;12.93;9.75;;;;;;;;;;5018521;28;20183;-48
2021/04/18 11:50:22;;;;;;;11.25;9.73;;;;;;;;;;5017623;28;20705;-49
2021/04/18 11:52:47;;;;;;;10.70;9.55;;;;;;;;;;5019924;28;20193;-47
2021/04/18 11:55:14;;;;;;;11.10;9.90;;;;;;;;;;5019650;28;20187;-49
2021/04/18 11:57:40;;;;;;;12.45;9.43;;;;;;;;;;5014107;28;20215;-49
2021/04/18 12:00:12;;;;;;;13.82;9.63;;;;;;;;;;5014779;28;20210;-49
2021/04/18 12:02:38;;;;;;;14.82;10.75;;;;;;;;;;5019140;28;20244;-49
2021/04/18 12:05:05;;;;;;;12.85;10.52;;;;;;;;;;5016150;28;20198;-49
2021/04/18 12:07:33;;;;;;;12.93;11.48;;;;;;;;;;5008058;28;20215;-50
2021/04/18 12:10:01;;;;;;;14.05;11.00;;;;;;;;;;5010192;28;20210;-50
2021/04/18 12:12:29;;;;;;;15.48;12.55;;;;;;;;;;5014357;28;20187;-50
2021/04/18 12:14:56;;;;;;;14.55;13.02;;;;;;;;;;5012968;28;20745;-50
2021/04/18 12:17:26;;;;;;;16.08;13.20;;;;;;;;;;5017663;28;20214;-49
2021/04/18 12:19:52;;;;;;;17.10;11.98;;;;;;;;;;5015383;28;20285;-49
2021/04/18 12:22:20;;;;;;;13.35;11.43;;;;;;;;;;5019730;28;20651;-49
2021/04/18 12:24:46;;;;;;;12.90;9.30;;;;;;;;;;5008993;28;20197;-49
2021/04/18 12:27:11;;;;;;;9.55;7.22;;;;;;;;;;5011192;28;20195;-48
2021/04/18 12:29:39;;;;;;;7.88;6.70;;;;;;;;;;5017313;28;20214;-50
2021/04/18 12:32:07;;;;;;;9.18;7.38;;;;;;;;;;5021681;28;20547;-49
2021/04/18 12:34:40;;;;;;;8.07;6.65;;;;;;;;;;5015540;28;20274;-49
2021/04/18 12:37:07;;;;;;;7.85;7.05;;;;;;;;;;5035090;28;20209;-49
2021/04/18 12:39:37;;;;;;;8.52;6.82;;;;;;;;;;5016230;28;20226;-49
2021/04/18 12:42:03;;;;;;;7.60;6.60;;;;;;;;;;5015085;28;20198;-49
2021/04/18 12:44:31;;;;;;;7.95;6.78;;;;;;;;;;5010802;28;20218;-49
2021/04/18 12:47:01;;;;;;;7.65;6.65;;;;;;;;;;5012606;28;20282;-49
2021/04/18 12:49:29;;;;;;;8.80;7.18;;;;;;;;;;5009800;28;20214;-49
2021/04/18 12:51:57;;;;;;;8.25;7.10;;;;;;;;;;5012694;28;20210;-49
2021/04/18 12:54:22;;;;;;;9.90;6.53;;;;;;;;;;5015221;28;20185;-48
2021/04/18 12:56:47;;;;;;;8.32;7.10;;;;;;;;;;5010721;28;20218;-50
2021/04/18 12:59:13;;;;;;;8.93;6.70;;;;;;;;;;5013752;28;20215;-49
2021/04/18 13:01:38;;;;;;;8.60;7.03;;;;;;;;;;5011237;28;20272;-48
2021/04/18 13:04:08;;;;;;;9.88;7.70;;;;;;;;;;5020089;28;20260;-49
2021/04/18 13:06:36;;;;;;;10.77;6.78;;;;;;;;;;5016305;28;20198;-47
2021/04/18 13:09:01;;;;;;;7.53;6.80;;;;;;;;;;5018156;28;20841;-49
2021/04/18 13:11:29;;;;;;;10.63;7.07;;;;;;;;;;5016601;28;20282;-48
2021/04/18 13:13:56;;;;;;;9.25;7.47;;;;;;;;;;5013951;28;20230;-49
2021/04/18 13:16:22;;;;;;;8.13;6.47;;;;;;;;;;5015722;28;20205;-46
2021/04/18 13:18:47;;;;;;;9.45;6.88;;;;;;;;;;5013566;28;20211;-46
2021/04/18 13:21:15;;;;;;;11.80;7.20;;;;;;;;;;5011245;28;20195;-46
2021/04/18 13:23:41;;;;;;;11.03;7.43;;;;;;;;;;5020944;28;20187;-48
2021/04/18 13:26:08;;;;;;;9.63;7.00;;;;;;;;;;5013787;28;20191;-50
2021/04/18 13:28:36;;;;;;;7.87;6.80;;;;;;;;;;5014023;28;20226;-50
2021/04/18 13:31:02;;;;;;;8.20;6.43;;;;;;;;;;5021090;28;20207;-49
2021/04/18 13:33:27;;;;;;;10.53;7.40;;;;;;;;;;5029741;28;20218;-48
2021/04/18 13:35:57;;;;;;;10.00;7.80;;;;;;;;;;5025524;28;20232;-49
2021/04/18 13:38:23;;;;;;;11.50;8.03;;;;;;;;;;5024899;28;20651;-49
2021/04/18 13:40:50;;;;;;;9.80;7.47;;;;;;;;;;5019285;28;20222;-49
2021/04/18 13:43:20;;;;;;;12.27;8.17;;;;;;;;;;5019551;28;20191;-49
2021/04/18 13:45:48;;;;;;;10.60;7.93;;;;;;;;;;5020642;28;20337;-48
2021/04/18 13:48:16;;;;;;;13.50;8.93;;;;;;;;;;5022423;28;20225;-50
2021/04/18 13:50:43;;;;;;;9.83;8.07;;;;;;;;;;5026964;28;20206;-49
2021/04/18 13:53:14;;;;;;;11.43;8.33;;;;;;;;;;5027809;28;20178;-49
2021/04/18 13:55:44;;;;;;;14.33;9.67;;;;;;;;;;5025637;28;20265;-50
2021/04/18 13:58:09;;;;;;;11.10;8.10;;;;;;;;;;5017781;28;20250;-50
2021/04/18 14:00:39;;;;;;;15.40;8.57;;;;;;;;;;5022337;28;20211;-50
2021/04/18 14:03:09;;;;;;;12.97;8.87;;;;;;;;;;5020988;28;20266;-50
2021/04/18 14:05:37;;;;;;;12.93;9.83;;;;;;;;;;5025143;28;20552;-49
2021/04/18 14:08:03;;;;;;;13.67;10.17;;;;;;;;;;5018136;28;20266;-49
2021/04/18 14:10:28;;;;;;;12.53;8.90;;;;;;;;;;5024931;28;20325;-48
2021/04/18 14:12:58;;;;;;;13.63;9.83;;;;;;;;;;5024808;28;20215;-49
2021/04/18 14:15:29;;;;;;;12.40;8.13;;;;;;;;;;5028671;28;20193;-46
2021/04/18 14:17:59;;;;;;;13.33;8.33;;;;;;;;;;5021061;28;20206;-50
2021/04/18 14:20:25;;;;;;;14.17;9.50;;;;;;;;;;5023539;28;20197;-50
2021/04/18 14:22:51;;;;;;;12.23;9.60;;;;;;;;;;5019734;28;20655;-49
2021/04/18 14:25:16;;;;;;;13.53;10.30;;;;;;;;;;5025008;28;20189;-48
2021/04/18 14:27:45;;;;;;;14.77;10.00;;;;;;;;;;5017422;28;20192;-50
2021/04/18 14:30:17;;;;;;;12.30;9.43;;;;;;;;;;5017364;28;20206;-49
2021/04/18 14:32:45;;;;;;;13.27;9.80;;;;;;;;;;5014203;28;20546;-50
2021/04/18 14:35:13;;;;;;;14.40;9.97;;;;;;;;;;5016240;28;20199;-49
2021/04/18 14:37:41;;;;;;;14.57;9.87;;;;;;;;;;5019038;28;20289;-49